createdAt,value
2022-09-01T00:00:16.270Z,37.62
2022-09-01T00:02:45.073Z,37.11
2022-09-01T00:05:13.946Z,37.50
2022-09-01T00:07:42.715Z,37.83
2022-09-01T00:10:11.779Z,37.71
2022-09-01T00:12:41.036Z,37.50
2022-09-01T00:15:12.478Z,37.28
2022-09-01T00:17:41.217Z,37.63
2022-09-01T00:20:10.400Z,37.40
2022-09-01T00:22:38.913Z,37.69
2022-09-01T00:25:09.072Z,37.98
2022-09-01T00:27:37.830Z,38.25
2022-09-01T00:30:07.292Z,38.48
2022-09-01T00:32:35.878Z,38.32
2022-09-01T00:35:04.835Z,38.71
2022-09-01T00:37:33.445Z,39.21
2022-09-01T00:40:01.889Z,39.05
2022-09-01T00:42:30.551Z,39.05
2022-09-01T00:44:59.035Z,38.97
2022-09-01T00:47:28.995Z,39.51
2022-09-01T00:49:57.790Z,39.95
2022-09-01T00:52:54.235Z,39.93
2022-09-01T00:55:32.945Z,40.05
2022-09-01T00:58:03.675Z,40.20
2022-09-01T01:00:34.389Z,40.36
2022-09-01T01:03:03.079Z,40.74
2022-09-01T01:05:35.228Z,41.13
2022-09-01T01:08:05.315Z,41.59
2022-09-01T01:10:37.370Z,41.44
2022-09-01T01:13:11.551Z,41.60
2022-09-01T01:15:40.090Z,41.33
2022-09-01T01:18:08.630Z,41.43
2022-09-01T01:21:06.352Z,41.69
2022-09-01T01:23:41.240Z,41.69
2022-09-01T01:26:11.875Z,41.89
2022-09-01T01:28:44.069Z,41.83
2022-09-01T01:31:20.347Z,42.28
2022-09-01T01:33:55.219Z,42.41
2022-09-01T01:36:37.277Z,42.75
2022-09-01T01:39:13.387Z,43.56
2022-09-01T01:41:46.375Z,43.57
2022-09-01T01:44:17.151Z,43.58
2022-09-01T01:46:49.302Z,43.83
2022-09-01T01:49:20.979Z,43.81
2022-09-01T01:51:54.270Z,43.91
2022-09-01T01:54:24.029Z,44.44
2022-09-01T01:56:52.884Z,44.67
2022-09-01T01:59:21.610Z,44.79
2022-09-01T02:01:52.367Z,45.42
2022-09-01T02:04:22.076Z,45.72
2022-09-01T02:06:56.846Z,45.55
2022-09-01T02:09:25.470Z,46.04
2022-09-01T02:11:58.410Z,45.78
2022-09-01T02:14:27.040Z,46.35
2022-09-01T02:16:56.906Z,46.38
2022-09-01T02:19:25.489Z,46.48
2022-09-01T02:21:57.274Z,46.72
2022-09-01T02:24:25.880Z,46.49
2022-09-01T02:27:01.631Z,46.97
2022-09-01T02:29:30.474Z,47.16
2022-09-01T02:32:03.676Z,47.63
2022-09-01T02:34:32.998Z,47.62
2022-09-01T02:37:01.454Z,48.18
2022-09-01T02:39:35.550Z,47.97
2022-09-01T02:42:04.115Z,48.19
2022-09-01T02:44:33.149Z,48.34
2022-09-01T02:47:02.695Z,48.33
2022-09-01T02:49:32.594Z,48.36
2022-09-01T02:52:02.555Z,48.63
2022-09-01T02:54:32.970Z,48.41
2022-09-01T02:57:02.110Z,48.72
2022-09-01T02:59:32.867Z,48.77
2022-09-01T03:02:01.629Z,49.04
2022-09-01T03:04:36.297Z,48.71
2022-09-01T03:07:06.910Z,48.96
2022-09-01T03:09:36.420Z,49.12
2022-09-01T03:12:08.209Z,49.34
2022-09-01T03:14:36.680Z,49.26
2022-09-01T03:17:05.189Z,49.43
2022-09-01T03:19:45.435Z,49.38
2022-09-01T03:22:14.117Z,49.42
2022-09-01T03:24:42.538Z,49.54
2022-09-01T03:27:12.774Z,49.77
2022-09-01T03:29:41.475Z,49.85
2022-09-01T03:32:09.983Z,49.45
2022-09-01T03:34:39.825Z,49.05
2022-09-01T03:37:09.149Z,49.17
2022-09-01T03:39:37.750Z,49.39
2022-09-01T03:42:09.575Z,49.69
2022-09-01T03:44:42.109Z,49.62
2022-09-01T03:47:16.315Z,50.34
2022-09-01T03:49:44.990Z,50.07
2022-09-01T03:52:14.589Z,50.32
2022-09-01T03:54:44.850Z,50.64
2022-09-01T03:57:14.366Z,50.73
2022-09-01T03:59:46.415Z,50.72
2022-09-01T04:02:15.697Z,50.84
2022-09-01T04:04:44.354Z,51.09
2022-09-01T04:07:19.082Z,51.02
2022-09-01T04:09:48.189Z,51.39
2022-09-01T04:12:16.791Z,51.18
2022-09-01T04:14:45.266Z,51.10
2022-09-01T04:17:31.869Z,51.64
2022-09-01T04:20:00.816Z,51.51
2022-09-01T04:22:32.980Z,51.75
2022-09-01T04:25:01.635Z,51.78
2022-09-01T04:27:30.390Z,52.21
2022-09-01T04:29:58.909Z,53.06
2022-09-01T04:32:28.470Z,52.61
2022-09-01T04:34:58.270Z,52.49
2022-09-01T04:37:26.875Z,52.83
2022-09-01T04:39:57.597Z,52.68
2022-09-01T04:42:29.978Z,52.61
2022-09-01T04:45:02.045Z,52.62
2022-09-01T04:47:42.827Z,52.48
2022-09-01T04:50:18.309Z,52.57
2022-09-01T04:52:48.778Z,52.98
2022-09-01T04:55:20.511Z,53.25
2022-09-01T04:57:50.410Z,53.34
2022-09-01T05:00:24.631Z,53.67
2022-09-01T05:03:05.484Z,54.12
2022-09-01T05:05:44.190Z,54.38
2022-09-01T05:08:23.064Z,54.74
2022-09-01T05:10:54.374Z,54.80
2022-09-01T05:13:24.099Z,54.94
2022-09-01T05:16:07.233Z,54.92
2022-09-01T05:18:36.505Z,55.62
2022-09-01T05:21:13.674Z,55.66
2022-09-01T05:23:42.220Z,55.86
2022-09-01T05:26:20.869Z,55.91
2022-09-01T05:28:54.826Z,55.99
2022-09-01T05:31:25.534Z,56.14
2022-09-01T05:33:54.080Z,56.48
2022-09-01T05:36:24.684Z,56.41
2022-09-01T05:38:53.270Z,56.39
2022-09-01T05:41:25.155Z,56.38
2022-09-01T05:44:00.070Z,56.72
2022-09-01T05:46:29.294Z,56.71
2022-09-01T05:48:59.042Z,56.71
2022-09-01T05:51:50.358Z,56.59
2022-09-01T05:54:24.050Z,56.58
2022-09-01T05:56:54.549Z,56.65
2022-09-01T05:59:25.842Z,56.65
2022-09-01T06:01:55.812Z,56.83
2022-09-01T06:04:30.937Z,56.85
2022-09-01T06:07:08.499Z,56.84
2022-09-01T06:09:40.469Z,56.93
2022-09-01T06:12:18.813Z,57.14
2022-09-01T06:14:54.113Z,57.16
2022-09-01T06:17:28.190Z,57.19
2022-09-01T06:19:58.062Z,57.15
2022-09-01T06:22:29.323Z,57.37
2022-09-01T06:25:01.930Z,57.43
2022-09-01T06:27:31.528Z,57.44
2022-09-01T06:30:00.711Z,57.52
2022-09-01T06:32:29.829Z,57.50
2022-09-01T06:35:01.430Z,57.57
2022-09-01T06:37:31.460Z,57.94
2022-09-01T06:40:00.021Z,57.91
2022-09-01T06:42:28.961Z,57.99
2022-09-01T06:44:57.409Z,58.20
2022-09-01T06:47:25.776Z,58.37
2022-09-01T06:49:58.030Z,58.49
2022-09-01T06:52:27.321Z,58.30
2022-09-01T06:54:57.617Z,58.48
2022-09-01T07:00:21.938Z,58.43
2022-09-01T07:02:56.048Z,58.67
2022-09-01T07:08:23.075Z,58.94
2022-09-01T07:16:51.804Z,59.35
2022-09-01T07:19:21.708Z,59.12
2022-09-01T07:24:41.317Z,59.69
2022-09-01T07:27:10.775Z,59.86
2022-09-01T07:32:47.467Z,60.26
2022-09-01T07:35:19.711Z,60.18
2022-09-01T07:38:48.452Z,60.09
2022-09-01T07:43:32.766Z,60.26
2022-09-01T07:51:46.604Z,60.88
2022-09-01T07:54:15.197Z,60.80
2022-09-01T07:56:43.877Z,60.78
2022-09-01T07:59:15.019Z,60.69
2022-09-01T08:01:44.451Z,60.96
2022-09-01T08:04:13.151Z,61.09
2022-09-01T08:06:41.789Z,60.99
2022-09-01T08:09:27.427Z,61.08
2022-09-01T08:12:02.606Z,61.25
2022-09-01T08:14:34.281Z,61.46
2022-09-01T08:17:16.845Z,61.85
2022-09-01T08:19:48.030Z,61.46
2022-09-01T08:22:17.388Z,61.60
2022-09-01T08:24:45.945Z,61.63
2022-09-01T08:27:14.432Z,61.73
2022-09-01T08:29:43.551Z,61.69
2022-09-01T08:32:12.635Z,61.70
2022-09-01T08:34:41.311Z,61.87
2022-09-01T08:37:09.956Z,61.86
2022-09-01T08:39:38.436Z,62.09
2022-09-01T08:42:16.195Z,62.19
2022-09-01T08:45:03.870Z,62.21
2022-09-01T08:47:49.213Z,62.42
2022-09-01T08:50:23.065Z,62.45
2022-09-01T08:53:09.913Z,62.48
2022-09-01T08:55:44.957Z,62.54
2022-09-01T08:58:19.139Z,62.90
2022-09-01T09:00:55.113Z,62.97
2022-09-01T09:03:47.710Z,62.93
2022-09-01T09:06:27.070Z,63.01
2022-09-01T09:09:04.955Z,63.08
2022-09-01T09:11:46.913Z,63.10
2022-09-01T09:14:28.351Z,63.21
2022-09-01T09:16:57.966Z,63.34
2022-09-01T09:19:45.230Z,63.42
2022-09-01T09:22:19.415Z,63.43
2022-09-01T09:24:57.630Z,63.36
2022-09-01T09:27:29.312Z,63.45
2022-09-01T09:30:13.929Z,63.65
2022-09-01T09:33:44.330Z,63.90
2022-09-01T09:36:16.672Z,63.79
2022-09-01T09:38:45.295Z,63.51
2022-09-01T09:41:26.055Z,63.85
2022-09-01T09:44:01.187Z,63.96
2022-09-01T09:46:44.891Z,63.97
2022-09-01T09:49:34.446Z,64.25
2022-09-01T09:52:16.996Z,64.30
2022-09-01T09:55:28.785Z,64.23
2022-09-01T09:58:10.590Z,64.23
2022-09-01T10:00:40.315Z,64.37
2022-09-01T10:03:14.960Z,64.42
2022-09-01T10:05:53.950Z,64.46
2022-09-01T10:08:28.668Z,64.75
2022-09-01T10:10:58.765Z,64.40
2022-09-01T10:13:31.412Z,64.64
2022-09-01T10:16:22.078Z,64.82
2022-09-01T10:18:54.950Z,64.67
2022-09-01T10:21:30.750Z,64.75
2022-09-01T10:24:20.894Z,64.86
2022-09-01T10:26:56.329Z,64.82
2022-09-01T10:29:47.531Z,64.85
2022-09-01T10:32:47.745Z,64.77
2022-09-01T10:35:34.235Z,65.01
2022-09-01T10:38:11.960Z,65.15
2022-09-01T10:40:51.890Z,65.06
2022-09-01T10:43:42.270Z,65.12
2022-09-01T10:46:27.582Z,65.28
2022-09-01T10:49:25.233Z,65.24
2022-09-01T10:52:03.263Z,65.34
2022-09-01T10:54:51.511Z,65.35
2022-09-01T10:57:46.749Z,65.46
2022-09-01T11:03:52.157Z,65.52
2022-09-01T11:07:13.363Z,65.60
2022-09-01T11:09:46.270Z,65.61
2022-09-01T11:12:29.870Z,65.74
2022-09-01T11:15:06.951Z,65.76
2022-09-01T11:17:42.351Z,65.75
2022-09-01T11:20:23.712Z,66.01
2022-09-01T11:23:31.552Z,66.06
2022-09-01T11:26:21.158Z,65.91
2022-09-01T11:28:50.283Z,65.87
2022-09-01T11:31:32.098Z,66.01
2022-09-01T11:34:20.350Z,66.12
2022-09-01T11:36:55.230Z,66.19
2022-09-01T11:39:37.789Z,66.26
2022-09-01T11:42:17.489Z,66.25
2022-09-01T11:44:52.029Z,66.47
2022-09-01T11:47:30.754Z,66.58
2022-09-01T11:50:19.869Z,66.40
2022-09-01T11:53:09.312Z,66.37
2022-09-01T11:55:49.955Z,66.58
2022-09-01T11:58:32.032Z,66.61
2022-09-01T12:01:23.232Z,66.64
2022-09-01T12:03:55.030Z,66.77
2022-09-01T12:06:27.549Z,66.93
2022-09-01T12:09:00.195Z,67.04
2022-09-01T12:11:34.719Z,67.05
2022-09-01T12:14:11.398Z,66.96
2022-09-01T12:16:43.281Z,67.03
2022-09-01T12:19:26.899Z,67.10
2022-09-01T12:22:04.014Z,67.00
2022-09-01T12:24:38.109Z,66.95
2022-09-01T12:27:06.752Z,66.96
2022-09-01T12:29:35.873Z,67.12
2022-09-01T12:32:05.868Z,67.25
2022-09-01T12:34:50.214Z,67.17
2022-09-01T12:37:26.268Z,67.35
2022-09-01T12:39:58.424Z,67.17
2022-09-01T12:42:29.448Z,67.22
2022-09-01T12:45:11.706Z,67.10
2022-09-01T12:47:50.329Z,67.12
2022-09-01T12:50:19.071Z,67.11
2022-09-01T12:52:52.443Z,67.11
2022-09-01T12:58:31.230Z,67.11
2022-09-01T13:01:07.195Z,66.92
2022-09-01T13:04:04.629Z,67.20
2022-09-01T13:06:33.492Z,67.13
2022-09-01T13:09:02.109Z,67.02
2022-09-01T13:12:06.049Z,67.11
2022-09-01T13:14:20.064Z,67.18
2022-09-01T13:16:49.346Z,67.11
2022-09-01T13:19:27.204Z,67.21
2022-09-01T13:21:56.099Z,67.31
2022-09-01T13:24:28.576Z,67.21
2022-09-01T13:29:47.555Z,67.27
2022-09-01T13:32:18.809Z,67.33
2022-09-01T13:34:50.645Z,67.20
2022-09-01T13:37:20.349Z,67.09
2022-09-01T13:39:49.429Z,67.23
2022-09-01T13:42:18.865Z,67.34
2022-09-01T13:44:50.995Z,67.34
2022-09-01T13:47:29.240Z,67.12
2022-09-01T13:50:06.998Z,67.32
2022-09-01T13:52:37.474Z,67.42
2022-09-01T13:55:08.349Z,67.17
2022-09-01T13:57:37.193Z,67.22
2022-09-01T14:00:11.834Z,67.48
2022-09-01T14:02:42.771Z,67.42
2022-09-01T14:05:11.956Z,67.72
2022-09-01T14:07:40.505Z,67.63
2022-09-01T14:10:09.949Z,67.55
2022-09-01T14:12:41.185Z,67.44
2022-09-01T14:15:13.918Z,67.66
2022-09-01T14:17:45.270Z,67.43
2022-09-01T14:20:19.391Z,67.61
2022-09-01T14:22:49.284Z,67.60
2022-09-01T14:25:19.880Z,67.50
2022-09-01T14:27:48.809Z,67.64
2022-09-01T14:30:30.474Z,67.57
2022-09-01T14:33:00.890Z,67.71
2022-09-01T14:35:30.915Z,67.52
2022-09-01T14:38:00.144Z,67.72
2022-09-01T14:40:30.306Z,67.77
2022-09-01T14:42:58.804Z,67.66
2022-09-01T14:45:32.000Z,67.57
2022-09-01T14:48:02.594Z,67.66
2022-09-01T14:50:36.166Z,67.49
2022-09-01T14:53:05.110Z,67.38
2022-09-01T14:55:33.913Z,67.36
2022-09-01T14:58:02.757Z,67.36
2022-09-01T15:00:32.887Z,67.17
2022-09-01T15:03:01.414Z,67.11
2022-09-01T15:05:29.916Z,66.93
2022-09-01T15:08:11.947Z,66.94
2022-09-01T15:10:43.230Z,66.93
2022-09-01T15:13:11.890Z,66.82
2022-09-01T15:15:40.990Z,66.83
2022-09-01T15:18:09.775Z,66.85
2022-09-01T15:20:48.130Z,66.65
2022-09-01T15:23:22.859Z,66.74
2022-09-01T15:25:55.400Z,66.82
2022-09-01T15:28:23.975Z,66.55
2022-09-01T15:30:54.420Z,66.49
2022-09-01T15:33:23.056Z,66.67
2022-09-01T15:35:51.490Z,66.43
2022-09-01T15:38:25.007Z,66.20
2022-09-01T15:40:58.362Z,66.13
2022-09-01T15:43:31.262Z,66.03
2022-09-01T15:46:01.630Z,66.14
2022-09-01T15:48:30.749Z,65.97
2022-09-01T15:51:25.316Z,65.86
2022-09-01T15:53:57.316Z,65.72
2022-09-01T15:56:26.031Z,65.68
2022-09-01T15:59:03.376Z,66.11
2022-09-01T16:01:35.239Z,65.72
2022-09-01T16:04:06.111Z,65.56
2022-09-01T16:06:35.410Z,65.48
2022-09-01T16:09:04.067Z,65.35
2022-09-01T16:11:32.671Z,65.36
2022-09-01T16:14:02.746Z,65.00
2022-09-01T16:16:47.433Z,64.92
2022-09-01T16:19:29.470Z,64.86
2022-09-01T16:22:30.913Z,64.70
2022-09-01T16:25:14.555Z,64.64
2022-09-01T16:27:46.686Z,64.34
2022-09-01T16:30:21.150Z,64.19
2022-09-01T16:32:51.549Z,63.92
2022-09-01T16:35:24.147Z,64.04
2022-09-01T16:38:29.207Z,63.90
2022-09-01T16:41:08.831Z,63.83
2022-09-01T16:43:54.070Z,63.64
2022-09-01T16:46:51.616Z,63.39
2022-09-01T16:49:20.146Z,63.28
2022-09-01T16:52:01.275Z,63.06
2022-09-01T16:55:10.557Z,62.80
2022-09-01T16:58:01.792Z,62.76
2022-09-01T17:01:03.442Z,62.39
2022-09-01T17:03:34.245Z,62.38
2022-09-01T17:06:36.952Z,62.04
2022-09-01T17:09:11.370Z,62.07
2022-09-01T17:11:49.385Z,61.86
2022-09-01T17:14:40.836Z,61.43
2022-09-01T17:17:13.332Z,61.56
2022-09-01T17:19:42.906Z,61.30
2022-09-01T17:22:16.360Z,61.23
2022-09-01T17:24:50.503Z,60.95
2022-09-01T17:27:26.273Z,61.00
2022-09-01T17:29:58.236Z,60.41
2022-09-01T17:32:52.177Z,60.38
2022-09-01T17:35:26.915Z,60.26
2022-09-01T17:38:19.473Z,60.09
2022-09-01T17:41:00.225Z,59.65
2022-09-01T17:43:59.730Z,59.01
2022-09-01T17:47:05.964Z,58.99
2022-09-01T17:49:58.045Z,58.87
2022-09-01T17:52:52.765Z,58.44
2022-09-01T17:55:27.035Z,58.02
2022-09-01T17:58:05.785Z,57.81
2022-09-01T18:00:56.999Z,57.39
2022-09-01T18:03:48.720Z,56.93
2022-09-01T18:06:50.555Z,56.75
2022-09-01T18:09:23.351Z,55.82
2022-09-01T18:12:06.117Z,56.49
2022-09-01T18:14:51.070Z,56.37
2022-09-01T18:17:34.072Z,55.90
2022-09-01T18:20:21.156Z,55.38
2022-09-01T18:23:06.074Z,55.09
2022-09-01T18:25:43.396Z,53.95
2022-09-01T18:28:12.481Z,54.96
2022-09-01T18:30:54.104Z,53.94
2022-09-01T18:33:34.540Z,53.94
2022-09-01T18:36:21.255Z,53.65
2022-09-01T18:39:02.395Z,53.65
2022-09-01T18:41:42.896Z,53.69
2022-09-01T18:44:29.374Z,52.28
2022-09-01T18:47:04.676Z,52.71
2022-09-01T18:50:18.497Z,52.46
2022-09-01T18:53:15.390Z,51.91
2022-09-01T18:56:19.070Z,51.75
2022-09-01T18:59:19.235Z,51.65
2022-09-01T19:02:03.166Z,51.12
2022-09-01T19:04:43.555Z,50.36
2022-09-01T19:07:27.230Z,50.42
2022-09-01T19:10:04.291Z,50.77
2022-09-01T19:12:45.115Z,49.99
2022-09-01T19:15:43.700Z,49.28
2022-09-01T19:18:35.655Z,49.14
2022-09-01T19:21:33.415Z,48.29
2022-09-01T19:24:18.160Z,48.43
2022-09-01T19:26:50.226Z,47.78
2022-09-01T19:29:23.590Z,47.22
2022-09-01T19:31:58.411Z,47.20
2022-09-01T19:34:37.956Z,47.12
2022-09-01T19:37:07.719Z,45.85
2022-09-01T19:39:39.876Z,45.44
2022-09-01T19:42:37.225Z,45.08
2022-09-01T19:45:14.705Z,43.75
2022-09-01T19:47:46.615Z,43.56
2022-09-01T19:50:32.506Z,44.02
2022-09-01T19:53:39.375Z,42.95
2022-09-01T19:56:30.731Z,41.15
2022-09-01T19:59:28.208Z,40.84
2022-09-01T20:02:03.418Z,40.51
2022-09-01T20:04:58.975Z,39.29
2022-09-01T20:07:45.466Z,39.78
2022-09-01T20:10:43.670Z,38.90
2022-09-01T20:13:44.955Z,38.33
2022-09-01T20:16:36.469Z,37.93
2022-09-01T20:19:40.276Z,37.76
2022-09-01T20:22:31.343Z,37.28
2022-09-01T20:25:11.728Z,37.28
2022-09-01T20:28:04.156Z,36.66
2022-09-01T20:30:41.208Z,36.02
2022-09-01T20:33:23.994Z,35.64
2022-09-01T20:35:55.575Z,34.55
2022-09-01T20:39:22.232Z,34.74
2022-09-01T20:42:00.151Z,31.39
2022-09-01T20:44:40.830Z,33.34
2022-09-01T20:47:09.920Z,33.22
2022-09-01T20:49:40.172Z,32.84
2022-09-01T20:52:31.390Z,33.18
2022-09-01T20:55:44.689Z,32.61
2022-09-01T20:58:28.234Z,31.57
2022-09-01T21:01:15.557Z,32.09
2022-09-01T21:03:59.974Z,31.88
2022-09-01T21:06:28.829Z,31.59
2022-09-01T21:09:05.920Z,31.38
2022-09-01T21:11:49.630Z,31.01
2022-09-01T21:14:54.460Z,30.71
2022-09-01T21:17:43.030Z,29.16
2022-09-01T21:20:57.985Z,28.58
2022-09-01T21:23:27.230Z,29.19
2022-09-01T21:25:56.159Z,28.96
2022-09-01T21:28:27.424Z,28.71
2022-09-01T21:30:58.731Z,27.09
2022-09-01T21:33:31.879Z,28.19
2022-09-01T21:36:01.635Z,27.39
2022-09-01T21:38:30.712Z,28.21
2022-09-01T21:41:01.749Z,27.80
2022-09-01T21:43:37.276Z,27.99
2022-09-01T21:46:09.160Z,28.10
2022-09-01T21:48:38.270Z,27.37
2022-09-01T21:51:06.806Z,27.30
2022-09-01T21:53:35.398Z,27.21
2022-09-01T21:56:04.114Z,26.58
2022-09-01T21:58:32.838Z,26.66
2022-09-01T22:01:03.377Z,25.90
2022-09-01T22:03:32.355Z,26.38
2022-09-01T22:06:01.330Z,25.35
2022-09-01T22:08:29.910Z,25.66
2022-09-01T22:10:58.810Z,24.93
2022-09-01T22:13:27.364Z,25.59
2022-09-01T22:15:56.400Z,25.51
2022-09-01T22:18:24.845Z,25.45
2022-09-01T22:21:06.715Z,24.88
2022-09-01T22:23:35.749Z,24.65
2022-09-01T22:26:04.879Z,23.77
2022-09-01T22:28:33.756Z,23.90
2022-09-01T22:31:03.022Z,24.03
2022-09-01T22:33:32.275Z,23.29
2022-09-01T22:36:00.810Z,23.85
2022-09-01T22:38:29.451Z,23.26
2022-09-01T22:41:00.820Z,23.74
2022-09-01T22:43:30.425Z,23.78
2022-09-01T22:46:01.947Z,23.15
2022-09-01T22:48:30.724Z,23.52
2022-09-01T22:51:00.478Z,23.67
2022-09-01T22:53:32.314Z,23.89
2022-09-01T22:56:00.854Z,23.05
2022-09-01T22:58:29.475Z,23.47
2022-09-01T23:01:00.389Z,23.48
2022-09-01T23:03:28.995Z,23.60
2022-09-01T23:06:10.110Z,22.96
2022-09-01T23:08:39.990Z,24.26
2022-09-01T23:11:09.590Z,23.89
2022-09-01T23:13:38.915Z,23.88
2022-09-01T23:16:11.268Z,23.86
2022-09-01T23:18:44.465Z,23.79
2022-09-01T23:21:15.955Z,23.78
2022-09-01T23:23:44.478Z,23.78
2022-09-01T23:26:15.992Z,24.18
2022-09-01T23:28:46.754Z,24.64
2022-09-01T23:31:21.863Z,24.58
2022-09-01T23:33:50.395Z,25.32
2022-09-01T23:36:21.755Z,25.31
2022-09-01T23:38:51.359Z,25.08
2022-09-01T23:41:26.534Z,25.14
2022-09-01T23:43:56.516Z,25.41
2022-09-01T23:46:28.300Z,25.22
2022-09-01T23:48:57.275Z,25.62
2022-09-01T23:51:27.035Z,25.65
2022-09-01T23:53:55.884Z,25.92
2022-09-01T23:56:28.524Z,25.78
2022-09-01T23:58:57.635Z,25.90
